Preeceville, Canada
Current Conditions -  °F | °C
As of 2:16 PM on Monday 24 Nov 2014 (Local Time) from CYQV Reporting Station
Light Snow Light Snow  
Wind Chill:   Ceiling: 3100
Heat Index: 12°   Visibility: 6mi
Dew Point:   Wind: 8mph
Humidity: 85%   Direction: 190°S
Pressure: 29.88"   Gusts: NA
Location:  51.95°N, 102.67°W
Report Text: CYQV 242016Z AUTO 19007KT 6SM -SN BKN031 OVC036 M11/M13 A2988 RMK SLP163
Loading
Personal Weather Stations






























Interactive Weather Map New forecast layout! Learn more

10-Day Weather Forecast

Advertisements
Track Severe Weather on mobile